Time;durP1;ratioP1;P1;durP2;ratioP2;P2;SDS_P1;SDS_P2;PMS_P1;PMS_P2;Temp;Humidity;BMP_temperature;BMP_pressure;BME280_temperature;BME280_humidity;BME280_pressure;Samples;Min_cycle;Max_cycle;Signal;HPM_P1;HPM_P2
2021/04/05 00:01:38;;;;;;;;;;;;;;;4.57;74.85;100378.41;5079532;28;20406;-69
2021/04/05 00:04:24;;;;;;;;;;;;;;;4.50;74.61;100374.50;5065445;28;20367;-69
2021/04/05 00:07:10;;;;;;;;;;;;;;;4.49;75.22;100378.09;5079377;28;20419;-67
2021/04/05 00:09:54;;;;;;;;;;;;;;;4.57;74.41;100359.94;5065544;28;20061;-69
2021/04/05 00:12:37;;;;;;;;;;;;;;;4.55;74.67;100365.31;5079061;28;19919;-69
2021/04/05 00:15:21;;;;;;;;;;;;;;;4.60;74.45;100378.19;5079340;28;19966;-69
2021/04/05 00:18:05;;;;;;;;;;;;;;;4.58;74.44;100366.91;5079189;28;19919;-69
2021/04/05 00:20:51;;;;;;;;;;;;;;;4.57;74.65;100365.22;5094305;28;19919;-69
2021/04/05 00:23:35;;;;;;;;;;;;;;;4.49;74.61;100364.88;5079212;28;19919;-69
2021/04/05 00:26:19;;;;;;;;;;;;;;;4.41;75.36;100354.00;5079006;28;19922;-69
2021/04/05 00:29:03;;;;;;;;;;;;;;;4.48;75.37;100352.63;5078985;28;20304;-69
2021/04/05 00:31:47;;;;;;;;;;;;;;;4.50;75.70;100341.03;5078790;28;19927;-68
2021/04/05 00:34:31;;;;;;;;;;;;;;;4.54;75.15;100339.84;5079060;28;19957;-69
2021/04/05 00:37:15;;;;;;;;;;;;;;;4.59;75.16;100318.44;5093944;28;19922;-68
2021/04/05 00:39:59;;;;;;;;;;;;;;;4.81;74.63;100318.63;5078941;28;19919;-69
2021/04/05 00:42:43;;;;;;;;;;;;;;;4.92;73.78;100327.50;5093962;28;20402;-69
2021/04/05 00:45:28;;;;;;;;;;;;;;;4.93;74.11;100326.53;5078521;28;19919;-68
2021/04/05 00:48:16;;;;;;;;;;;;;;;5.11;73.21;100320.81;5078698;28;19969;-68
2021/04/05 00:51:01;;;;;;;;;;;;;;;5.21;72.09;100319.19;5064412;28;19919;-68
2021/04/05 00:53:45;;;;;;;;;;;;;;;5.19;72.41;100315.81;5094094;28;19919;-68
2021/04/05 00:56:29;;;;;;;;;;;;;;;5.24;72.30;100318.97;5078426;28;20363;-68
2021/04/05 00:59:13;;;;;;;;;;;;;;;5.26;72.01;100322.38;5093964;28;19922;-68
2021/04/05 01:01:57;;;;;;;;;;;;;;;5.29;71.97;100322.13;5093115;28;19919;-67
2021/04/05 01:04:41;;;;;;;;;;;;;;;5.25;71.23;100309.25;5078418;28;20391;-68
2021/04/05 01:07:25;;;;;;;;;;;;;;;5.29;71.62;100302.78;5064068;28;19923;-68
2021/04/05 01:10:09;;;;;;;;;;;;;;;5.27;72.56;100297.63;5078332;28;19919;-68
2021/04/05 01:12:54;;;;;;;;;;;;;;;5.36;71.58;100291.66;5064439;28;19919;-70
2021/04/05 01:15:37;;;;;;;;;;;;;;;5.29;70.67;100294.84;5093793;28;19935;-67
2021/04/05 01:18:21;;;;;;;;;;;;;;;5.35;71.11;100295.25;5078497;28;19918;-67
2021/04/05 01:21:06;;;;;;;;;;;;;;;5.42;71.23;100293.84;5064647;28;19961;-70
2021/04/05 01:23:50;;;;;;;;;;;;;;;5.50;71.47;100285.34;5078695;28;20448;-68
2021/04/05 01:26:34;;;;;;;;;;;;;;;5.61;70.49;100280.97;5078771;28;20060;-69
2021/04/05 01:29:18;;;;;;;;;;;;;;;5.63;70.25;100272.94;5094180;28;19919;-68
2021/04/05 01:32:02;;;;;;;;;;;;;;;5.76;69.86;100256.03;5078444;28;19919;-69
2021/04/05 01:34:46;;;;;;;;;;;;;;;5.73;69.80;100243.03;5078413;28;20018;-70
2021/04/05 01:37:30;;;;;;;;;;;;;;;5.71;70.67;100223.81;5063923;28;19919;-69
2021/04/05 01:40:14;;;;;;;;;;;;;;;5.78;69.70;100230.34;5078704;28;19957;-67
2021/04/05 01:42:58;;;;;;;;;;;;;;;5.82;70.00;100220.38;5078324;28;19965;-66
2021/04/05 01:45:42;;;;;;;;;;;;;;;5.83;69.96;100222.09;5078259;28;19923;-68
2021/04/05 01:48:27;;;;;;;;;;;;;;;5.90;69.29;100215.34;5078064;28;20292;-68
2021/04/05 01:51:12;;;;;;;;;;;;;;;5.92;68.75;100206.34;5064432;28;20432;-68
2021/04/05 01:53:56;;;;;;;;;;;;;;;5.96;68.63;100197.22;5093326;28;19919;-68
2021/04/05 01:56:40;;;;;;;;;;;;;;;6.00;68.40;100196.03;5093812;28;19919;-68
2021/04/05 01:59:23;;;;;;;;;;;;;;;6.02;68.27;100199.41;5077869;28;19966;-68
2021/04/05 02:02:08;;;;;;;;;;;;;;;6.03;68.46;100202.88;5077837;28;19950;-68
2021/04/05 02:04:51;;;;;;;;;;;;;;;6.04;68.02;100197.47;5077835;28;20291;-68
2021/04/05 02:07:36;;;;;;;;;;;;;;;6.05;68.46;100185.09;5077624;28;19923;-68
2021/04/05 02:10:22;;;;;;;;;;;;;;;6.03;67.91;100198.44;5077862;28;19919;-68
2021/04/05 02:13:06;;;;;;;;;;;;;;;6.03;67.75;100187.84;5078347;28;19958;-68
2021/04/05 02:15:50;;;;;;;;;;;;;;;6.01;67.80;100184.47;5096966;28;19919;-68
2021/04/05 02:18:36;;;;;;;;;;;;;;;6.00;67.91;100180.16;5067747;28;19919;-69
2021/04/05 02:21:20;;;;;;;;;;;;;;;5.98;68.46;100179.44;5096573;28;20454;-68
2021/04/05 02:24:05;;;;;;;;;;;;;;;5.98;68.52;100163.56;5096837;28;19973;-69
2021/04/05 02:26:48;;;;;;;;;;;;;;;5.95;68.41;100161.13;5096651;28;19923;-69
2021/04/05 02:29:32;;;;;;;;;;;;;;;5.97;68.74;100161.03;5096539;28;19919;-68
2021/04/05 02:32:16;;;;;;;;;;;;;;;5.96;68.69;100165.47;5066848;28;19919;-69
2021/04/05 02:35:00;;;;;;;;;;;;;;;5.97;68.44;100164.50;5067138;28;19965;-69
2021/04/05 02:37:44;;;;;;;;;;;;;;;6.00;68.79;100166.94;5096484;28;20332;-68
2021/04/05 02:40:28;;;;;;;;;;;;;;;6.10;68.39;100162.59;5081187;28;19960;-68
2021/04/05 02:43:12;;;;;;;;;;;;;;;6.12;68.22;100158.03;5081182;28;19919;-68
2021/04/05 02:45:56;;;;;;;;;;;;;;;6.16;68.05;100153.34;5081034;28;19939;-68
2021/04/05 02:48:41;;;;;;;;;;;;;;;6.17;68.74;100144.44;5080978;28;19957;-68
2021/04/05 02:51:25;;;;;;;;;;;;;;;6.18;68.58;100132.91;5066677;28;19938;-68
2021/04/05 02:54:09;;;;;;;;;;;;;;;6.15;69.28;100122.56;5066460;28;19926;-68
2021/04/05 02:56:53;;;;;;;;;;;;;;;6.13;68.73;100120.03;5066386;28;19965;-68
2021/04/05 02:59:37;;;;;;;;;;;;;;;6.06;68.84;100124.09;5080522;28;19957;-68
2021/04/05 03:02:21;;;;;;;;;;;;;;;6.05;68.94;100111.81;5066665;28;20387;-68
2021/04/05 03:05:05;;;;;;;;;;;;;;;5.98;69.45;100115.94;5080805;28;19919;-69
2021/04/05 03:07:52;;;;;;;;;;;;;;;5.96;69.89;100107.25;5096762;23;19984;-68
2021/04/05 03:10:37;;;;;;;;;;;;;;;5.94;70.16;100093.31;5100974;28;19923;-68
2021/04/05 03:13:20;;;;;;;;;;;;;;;5.92;70.81;100103.16;5100961;28;19956;-68
2021/04/05 03:16:05;;;;;;;;;;;;;;;5.90;70.38;100089.22;5086519;28;19918;-68
2021/04/05 03:18:49;;;;;;;;;;;;;;;5.92;71.00;100089.09;5080233;28;20007;-68
2021/04/05 03:21:33;;;;;;;;;;;;;;;5.91;71.48;100088.25;5080360;28;19919;-68
2021/04/05 03:24:17;;;;;;;;;;;;;;;5.89;71.67;100084.91;5066054;28;19919;-68
2021/04/05 03:27:01;;;;;;;;;;;;;;;5.92;71.70;100089.94;5079748;28;19969;-68
2021/04/05 03:29:45;;;;;;;;;;;;;;;5.97;71.93;100092.22;5080249;28;19919;-68
2021/04/05 03:32:29;;;;;;;;;;;;;;;5.98;71.88;100089.47;5065977;28;20387;-67
2021/04/05 03:35:14;;;;;;;;;;;;;;;5.98;71.77;100084.19;5065977;28;19918;-68
2021/04/05 03:37:58;;;;;;;;;;;;;;;6.04;71.63;100083.69;5065906;28;19961;-68
2021/04/05 03:40:42;;;;;;;;;;;;;;;6.06;71.57;100065.88;5079862;28;19965;-70
2021/04/05 03:43:30;;;;;;;;;;;;;;;6.11;71.65;100069.03;5079649;28;20382;-70
2021/04/05 03:46:19;;;;;;;;;;;;;;;6.16;71.66;100058.91;5079610;28;19923;-67
2021/04/05 03:49:24;;;;;;;;;;;;;;;6.17;71.58;100047.34;5065791;28;19957;-69
2021/04/05 03:52:09;;;;;;;;;;;;;;;6.14;71.43;100047.59;5065677;28;19966;-68
2021/04/05 03:54:54;;;;;;;;;;;;;;;6.22;71.58;100045.19;5079996;28;19918;-68
2021/04/05 03:57:41;;;;;;;;;;;;;;;6.32;71.53;100046.13;5079719;28;19961;-68
2021/04/05 04:00:25;;;;;;;;;;;;;;;6.37;70.81;100036.00;5079719;28;20288;-68
2021/04/05 04:03:11;;;;;;;;;;;;;;;6.37;71.17;100028.06;5079618;28;20496;-69
2021/04/05 04:05:57;;;;;;;;;;;;;;;6.31;71.29;100025.06;5079432;28;19938;-69
2021/04/05 04:08:45;;;;;;;;;;;;;;;6.29;71.41;100022.56;5094640;28;19919;-70
2021/04/05 04:11:29;;;;;;;;;;;;;;;6.32;70.39;100030.25;5080051;28;19980;-70
2021/04/05 04:14:16;;;;;;;;;;;;;;;6.30;70.26;100016.31;5079936;28;19962;-66
2021/04/05 04:17:00;;;;;;;;;;;;;;;6.29;70.29;100019.06;5065459;28;19977;-70
2021/04/05 04:19:45;;;;;;;;;;;;;;;6.30;70.29;100013.66;5079320;28;19951;-69
2021/04/05 04:22:31;;;;;;;;;;;;;;;6.33;70.95;100016.03;5080011;28;19992;-69
2021/04/05 04:25:15;;;;;;;;;;;;;;;6.37;70.72;100028.06;5080068;28;19938;-67
2021/04/05 04:27:59;;;;;;;;;;;;;;;6.42;70.30;100028.53;5079929;28;19923;-70
2021/04/05 04:30:43;;;;;;;;;;;;;;;6.43;70.62;100010.84;5080148;28;19935;-66
2021/04/05 04:33:28;;;;;;;;;;;;;;;6.45;70.36;100020.34;5065929;28;20002;-70
2021/04/05 04:36:12;;;;;;;;;;;;;;;6.46;70.83;100016.72;5094562;28;20296;-69
2021/04/05 04:38:56;;;;;;;;;;;;;;;6.46;70.94;100008.78;5096135;28;19919;-70
2021/04/05 04:41:45;;;;;;;;;;;;;;;6.46;70.83;100000.84;5065781;28;19969;-70
2021/04/05 04:44:28;;;;;;;;;;;;;;;6.42;71.07;99983.53;5094265;28;19926;-70
2021/04/05 04:47:12;;;;;;;;;;;;;;;6.37;71.01;99976.94;5094282;28;19923;-68
2021/04/05 04:49:56;;;;;;;;;;;;;;;6.37;71.47;99980.41;5094177;28;19918;-70
2021/04/05 04:52:40;;;;;;;;;;;;;;;6.34;71.90;99959.47;5078936;28;19918;-70
2021/04/05 04:55:25;;;;;;;;;;;;;;;6.38;71.61;99955.59;5064657;28;19965;-70
2021/04/05 04:58:09;;;;;;;;;;;;;;;6.42;71.31;99967.66;5093804;28;19935;-67
2021/04/05 05:00:53;;;;;;;;;;;;;;;6.46;71.67;99955.81;5078884;28;19919;-67
2021/04/05 05:03:39;;;;;;;;;;;;;;;6.51;71.67;99956.31;5078880;28;19919;-70
2021/04/05 05:06:23;;;;;;;;;;;;;;;6.51;71.64;99971.34;5078694;28;20024;-69
2021/04/05 05:09:07;;;;;;;;;;;;;;;6.52;71.44;99960.63;5078887;28;19919;-69
2021/04/05 05:11:51;;;;;;;;;;;;;;;6.54;71.49;99961.34;5078622;28;20383;-70
2021/04/05 05:14:35;;;;;;;;;;;;;;;6.56;70.94;99940.88;5078902;28;19919;-69
2021/04/05 05:17:19;;;;;;;;;;;;;;;6.55;71.33;99939.19;5078303;28;20407;-69
2021/04/05 05:20:03;;;;;;;;;;;;;;;6.61;71.26;99962.53;5078520;28;19961;-69
2021/04/05 05:22:48;;;;;;;;;;;;;;;6.59;71.56;99942.44;5064453;28;19934;-70
2021/04/05 05:25:32;;;;;;;;;;;;;;;6.62;70.58;99948.31;5078614;28;19919;-69
2021/04/05 05:28:16;;;;;;;;;;;;;;;6.64;70.59;99941.06;5078656;28;19934;-70
2021/04/05 05:31:01;;;;;;;;;;;;;;;6.61;71.29;99936.03;5078613;28;20050;-69
2021/04/05 05:33:44;;;;;;;;;;;;;;;6.59;70.94;99942.44;5078583;28;19919;-69
2021/04/05 05:36:28;;;;;;;;;;;;;;;6.55;71.42;99947.13;5064219;28;19918;-66
2021/04/05 05:39:12;;;;;;;;;;;;;;;6.57;70.80;99947.00;5064240;28;19961;-70
2021/04/05 05:42:02;;;;;;;;;;;;;;;6.59;71.17;99953.03;5078511;28;20021;-69
2021/04/05 05:44:47;;;;;;;;;;;;;;;6.60;71.00;99947.59;5093607;28;19966;-70
2021/04/05 05:47:38;;;;;;;;;;;;;;;6.57;70.37;99955.78;5078327;28;20038;-70
2021/04/05 05:50:32;;;;;;;;;;;;;;;6.58;70.96;99938.91;5082378;28;19919;-70
2021/04/05 05:53:19;;;;;;;;;;;;;;;6.58;70.50;99933.63;5081885;28;19970;-69
2021/04/05 05:56:09;;;;;;;;;;;;;;;6.62;70.33;99927.13;5097520;28;19958;-69
2021/04/05 05:59:02;;;;;;;;;;;;;;;6.57;70.80;99918.72;5097765;28;20011;-69
2021/04/05 06:01:48;;;;;;;;;;;;;;;6.63;70.15;99933.25;5081953;28;19918;-69
2021/04/05 06:04:51;;;;;;;;;;;;;;;6.70;70.65;99931.78;5081928;28;20258;-70
2021/04/05 06:07:47;;;;;;;;;;;;;;;6.79;70.76;99931.84;5097103;28;19927;-69
2021/04/05 06:10:50;;;;;;;;;;;;;;;6.82;70.81;99939.56;5081960;28;19958;-70
2021/04/05 06:13:53;;;;;;;;;;;;;;;6.89;70.35;99938.03;5097189;28;19961;-69
2021/04/05 06:16:56;;;;;;;;;;;;;;;7.02;69.97;99925.47;5096349;28;19961;-70
2021/04/05 06:20:00;;;;;;;;;;;;;;;7.11;70.33;99924.69;5096214;28;19923;-69
2021/04/05 06:22:56;;;;;;;;;;;;;;;7.17;69.79;99908.22;5092610;28;19919;-70
2021/04/05 06:25:59;;;;;;;;;;;;;;;7.22;69.79;99898.09;5096876;28;19923;-69
2021/04/05 06:28:48;;;;;;;;;;;;;;;7.35;69.77;99903.16;5096593;28;19935;-70
2021/04/05 06:31:50;;;;;;;;;;;;;;;7.47;69.33;99883.56;5097270;28;19918;-70
2021/04/05 06:34:34;;;;;;;;;;;;;;;7.47;68.72;99910.06;5096704;28;19927;-69
2021/04/05 06:37:27;;;;;;;;;;;;;;;7.53;68.67;99898.91;5096297;28;19965;-70
2021/04/05 06:40:15;;;;;;;;;;;;;;;7.53;68.60;99892.63;5081066;28;20395;-70
2021/04/05 06:43:08;;;;;;;;;;;;;;;7.61;67.99;99926.44;5081012;28;19958;-70
2021/04/05 06:45:52;;;;;;;;;;;;;;;7.60;68.92;99879.66;5081214;28;19923;-70
2021/04/05 06:48:44;;;;;;;;;;;;;;;7.68;68.59;99871.88;5080847;28;19919;-69
2021/04/05 06:51:46;;;;;;;;;;;;;;;7.74;68.52;99874.81;5081067;28;19966;-70
2021/04/05 06:54:49;;;;;;;;;;;;;;;7.84;68.26;99878.34;5081199;28;19923;-70
2021/04/05 06:57:47;;;;;;;;;;;;;;;7.94;68.08;99860.63;5095997;28;19918;-69
2021/04/05 07:00:35;;;;;;;;;;;;;;;7.85;67.93;99856.13;5081183;28;19935;-69
2021/04/05 07:03:25;;;;;;;;;;;;;;;7.97;68.13;99848.91;5080864;28;20418;-69
2021/04/05 07:06:28;;;;;;;;;;;;;;;8.05;67.54;99880.91;5095136;28;19930;-70
2021/04/05 07:09:44;;;;;;;;;;;;;;;8.06;67.37;99856.03;5096747;28;20010;-70
2021/04/05 07:12:48;;;;;;;;;;;;;;;8.10;67.58;99863.59;5061467;28;19961;-68
2021/04/05 07:15:50;;;;;;;;;;;;;;;8.07;67.52;99858.56;5081005;28;20280;-69
2021/04/05 07:18:38;;;;;;;;;;;;;;;8.05;67.52;99883.56;5095956;28;20052;-70
2021/04/05 07:21:40;;;;;;;;;;;;;;;8.21;68.03;99854.66;5096121;28;20014;-69
2021/04/05 07:24:27;;;;;;;;;;;;;;;8.30;67.09;99865.31;5096633;28;19927;-70
2021/04/05 07:27:15;;;;;;;;;;;;;;;8.36;67.14;99847.97;5096519;28;19930;-70
2021/04/05 07:30:10;;;;;;;;;;;;;;;8.39;67.30;99848.53;5066686;28;19919;-70
2021/04/05 07:33:12;;;;;;;;;;;;;;;8.35;67.21;99873.69;5095989;28;20015;-69
2021/04/05 07:36:00;;;;;;;;;;;;;;;8.42;67.10;99848.25;5094752;28;20391;-69
2021/04/05 07:39:02;;;;;;;;;;;;;;;8.48;67.54;99862.78;5094468;28;20445;-69
2021/04/05 07:41:49;;;;;;;;;;;;;;;8.49;66.66;99864.47;5094652;28;20395;-70
2021/04/05 07:44:37;;;;;;;;;;;;;;;8.55;66.41;99862.06;5096052;28;19976;-69
2021/04/05 07:47:23;;;;;;;;;;;;;;;8.64;65.88;99863.88;5100016;28;20441;-70
2021/04/05 07:50:26;;;;;;;;;;;;;;;8.61;65.92;99882.78;5097208;28;19956;-68
2021/04/05 07:53:29;;;;;;;;;;;;;;;8.76;65.72;99851.28;5094505;28;19923;-69
2021/04/05 07:56:24;;;;;;;;;;;;;;;8.79;64.63;99872.25;5093656;28;19973;-69
2021/04/05 07:59:08;;;;;;;;;;;;;;;8.82;64.71;99856.00;5078767;28;19962;-70
2021/04/05 08:02:14;;;;;;;;;;;;;;;8.86;64.81;99860.09;5092971;28;20367;-70
2021/04/05 08:05:16;;;;;;;;;;;;;;;8.95;63.93;99885.81;5079037;28;20299;-70
2021/04/05 08:08:06;;;;;;;;;;;;;;;9.11;64.39;99846.16;5064667;28;20001;-70
2021/04/05 08:11:03;;;;;;;;;;;;;;;9.22;63.89;99837.97;5078528;28;19923;-70
2021/04/05 08:13:50;;;;;;;;;;;;;;;9.04;64.19;99845.03;5094429;28;19961;-70
2021/04/05 08:16:38;;;;;;;;;;;;;;;9.22;63.66;99836.19;5093032;28;20003;-70
2021/04/05 08:19:24;;;;;;;;;;;;;;;9.25;62.86;99832.38;5064499;28;19970;-70
2021/04/05 08:22:27;;;;;;;;;;;;;;;9.01;63.35;99840.88;5078851;28;19966;-70
2021/04/05 08:25:24;;;;;;;;;;;;;;;9.06;62.60;99825.31;5093788;28;20147;-70
2021/04/05 08:28:29;;;;;;;;;;;;;;;9.22;63.08;99816.72;5094101;28;19961;-70
2021/04/05 08:31:30;;;;;;;;;;;;;;;9.09;62.65;99853.44;5089781;28;20005;-69
2021/04/05 08:34:33;;;;;;;;;;;;;;;9.06;62.16;99805.88;5064132;28;19966;-69
2021/04/05 08:37:21;;;;;;;;;;;;;;;9.24;61.91;99838.66;5093390;28;19919;-70
2021/04/05 08:40:24;;;;;;;;;;;;;;;9.42;61.06;99812.97;5077945;28;19919;-70
2021/04/05 08:43:11;;;;;;;;;;;;;;;9.68;60.88;99833.41;5093613;28;20025;-70
2021/04/05 08:46:01;;;;;;;;;;;;;;;9.64;59.54;99836.53;5093632;28;19965;-70
2021/04/05 08:48:47;;;;;;;;;;;;;;;9.54;59.01;99803.81;5093441;28;19919;-70
2021/04/05 08:51:34;;;;;;;;;;;;;;;9.74;58.92;99797.38;5064066;28;20029;-70
2021/04/05 08:54:19;;;;;;;;;;;;;;;9.81;58.59;99811.78;5078458;28;20044;-70
2021/04/05 08:57:15;;;;;;;;;;;;;;;9.83;58.36;99807.13;5093422;28;19918;-70
2021/04/05 09:00:05;;;;;;;;;;;;;;;9.92;57.63;99792.91;5093283;28;19942;-70
2021/04/05 09:03:00;;;;;;;;;;;;;;;10.22;56.98;99782.75;5092337;28;19934;-70
2021/04/05 09:05:44;;;;;;;;;;;;;;;10.61;56.46;99790.22;5078083;28;19919;-70
2021/04/05 09:08:28;;;;;;;;;;;;;;;10.51;56.20;99773.50;5079173;28;20042;-70
2021/04/05 09:11:12;;;;;;;;;;;;;;;10.73;55.36;99766.78;5063839;28;19919;-71
2021/04/05 09:13:58;;;;;;;;;;;;;;;11.23;54.50;99763.25;5077889;28;20003;-70
2021/04/05 09:16:57;;;;;;;;;;;;;;;10.73;54.16;99766.78;5064171;28;19919;-70
2021/04/05 09:19:59;;;;;;;;;;;;;;;10.78;54.70;99752.03;5092932;28;20004;-70
2021/04/05 09:22:49;;;;;;;;;;;;;;;10.94;54.77;99730.75;5092938;28;19919;-70
2021/04/05 09:25:42;;;;;;;;;;;;;;;11.27;53.55;99739.75;5097021;28;20042;-70
2021/04/05 09:28:35;;;;;;;;;;;;;;;11.24;53.28;99729.38;5067540;28;20407;-70
2021/04/05 09:31:25;;;;;;;;;;;;;;;11.07;53.89;99723.16;5096072;28;19919;-70
2021/04/05 09:34:21;;;;;;;;;;;;;;;10.74;54.59;99716.00;5096944;28;19923;-70
2021/04/05 09:37:11;;;;;;;;;;;;;;;10.78;54.32;99721.84;5095929;28;20396;-70
2021/04/05 09:39:55;;;;;;;;;;;;;;;10.92;54.07;99731.91;5097214;28;19999;-70
2021/04/05 09:42:58;;;;;;;;;;;;;;;11.03;54.20;99732.47;5097066;28;19976;-70
2021/04/05 09:45:55;;;;;;;;;;;;;;;11.20;53.88;99728.88;5095780;28;19965;-70
2021/04/05 09:48:39;;;;;;;;;;;;;;;11.56;54.49;99719.63;5067194;28;20283;-70
2021/04/05 09:51:42;;;;;;;;;;;;;;;11.57;52.65;99734.69;5096983;28;19918;-70
2021/04/05 09:54:29;;;;;;;;;;;;;;;11.60;53.24;99723.72;5096594;28;19919;-70
2021/04/05 09:57:23;;;;;;;;;;;;;;;11.54;52.44;99735.00;5081067;28;20326;-70
2021/04/05 10:00:09;;;;;;;;;;;;;;;11.48;52.91;99716.94;5067168;28;19966;-69
2021/04/05 10:02:53;;;;;;;;;;;;;;;11.65;53.30;99708.00;5081073;28;20029;-70
2021/04/05 10:05:41;;;;;;;;;;;;;;;11.56;52.72;99708.97;5096484;28;19918;-70
2021/04/05 10:08:26;;;;;;;;;;;;;;;11.41;53.45;99715.94;5080842;28;20000;-69
2021/04/05 10:11:11;;;;;;;;;;;;;;;11.26;53.37;99722.88;5081088;28;19923;-69
2021/04/05 10:14:14;;;;;;;;;;;;;;;11.00;54.72;99719.47;5081102;28;19918;-69
2021/04/05 10:16:58;;;;;;;;;;;;;;;11.35;54.84;99718.44;5066769;28;19918;-69
2021/04/05 10:19:41;;;;;;;;;;;;;;;11.37;54.23;99703.91;5080934;28;19914;-69
2021/04/05 10:22:25;;;;;;;;;;;;;;;11.32;54.67;99716.91;5067079;28;19919;-70
2021/04/05 10:25:10;;;;;;;;;;;;;;;11.45;54.75;99730.63;5080942;28;19918;-69
2021/04/05 10:27:55;;;;;;;;;;;;;;;11.60;54.10;99730.88;5081031;28;20053;-70
2021/04/05 10:30:39;;;;;;;;;;;;;;;11.78;53.89;99729.72;5084562;28;19951;-70
2021/04/05 10:33:30;;;;;;;;;;;;;;;11.83;53.66;99719.41;5099084;28;20010;-70
2021/04/05 10:36:16;;;;;;;;;;;;;;;11.80;53.96;99738.41;5100496;28;19919;-70
2021/04/05 10:39:00;;;;;;;;;;;;;;;11.61;53.69;99725.38;5085297;28;19920;-69
2021/04/05 10:41:56;;;;;;;;;;;;;;;11.61;53.66;99713.84;5086983;28;19976;-69
2021/04/05 10:44:42;;;;;;;;;;;;;;;11.61;53.84;99717.38;5086817;28;19920;-70
2021/04/05 10:47:27;;;;;;;;;;;;;;;11.59;54.54;99703.31;5083744;28;20330;-70
2021/04/05 10:50:11;;;;;;;;;;;;;;;11.68;54.19;99741.56;5086170;28;19977;-69
2021/04/05 10:52:59;;;;;;;;;;;;;;;11.27;54.33;99777.91;5086190;28;20000;-69
2021/04/05 10:55:45;;;;;;;;;;;;;;;11.08;55.13;99692.81;5084905;28;19926;-69
2021/04/05 10:58:31;;;;;;;;;;;;;;;11.04;55.43;99702.13;5099291;28;19919;-70
2021/04/05 11:01:15;;;;;;;;;;;;;;;10.95;55.67;99719.09;5072935;28;19922;-67
2021/04/05 11:04:25;;;;;;;27.52;12.35;;;;;;;10.91;55.79;99690.25;5120148;27;20373;-68
2021/04/05 11:07:10;;;;;;;29.75;12.23;;;;;;;10.91;55.53;99691.09;5108228;28;20131;-69
2021/04/05 11:09:56;;;;;;;22.50;11.05;;;;;;;10.77;56.06;99689.00;5113683;28;20101;-68
2021/04/05 11:12:41;;;;;;;28.05;13.20;;;;;;;10.84;56.63;99700.72;5111715;28;20046;-69
2021/04/05 11:15:27;;;;;;;30.35;13.60;;;;;;;10.87;55.98;99672.91;5103291;28;20047;-69
2021/04/05 11:18:13;;;;;;;28.13;12.32;;;;;;;10.87;55.83;99667.56;5113572;28;20051;-69
2021/04/05 11:20:58;;;;;;;25.25;12.43;;;;;;;10.89;55.72;99671.75;5111635;28;20046;-69
2021/04/05 11:23:43;;;;;;;25.52;11.98;;;;;;;10.85;56.30;99681.06;5113787;28;20145;-69
2021/04/05 11:26:33;;;;;;;25.48;11.93;;;;;;;10.80;55.74;99685.19;5121319;28;20062;-68
2021/04/05 11:29:20;;;;;;;17.80;8.60;;;;;;;10.63;56.83;99673.63;5101376;28;20055;-68
2021/04/05 11:32:09;;;;;;;27.13;10.88;;;;;;;10.52;57.29;99679.22;5096909;28;20047;-68
2021/04/05 11:34:55;;;;;;;25.50;11.48;;;;;;;10.53;57.24;99675.56;5111051;28;20054;-68
2021/04/05 11:37:40;;;;;;;21.38;11.55;;;;;;;10.73;55.93;99669.00;5112527;28;20050;-69
2021/04/05 11:40:27;;;;;;;20.05;8.60;;;;;;;10.71;54.95;99667.47;5123808;28;20050;-68
2021/04/05 11:43:19;;;;;;;21.63;10.80;;;;;;;10.82;55.30;99656.53;5123137;28;20023;-68
2021/04/05 11:46:09;;;;;;;22.70;10.88;;;;;;;10.91;54.59;99651.09;5113355;28;20073;-69
2021/04/05 11:49:10;;;;;;;14.40;6.97;;;;;;;10.94;54.13;99653.44;5116596;28;20118;-68
2021/04/05 11:52:05;;;;;;;21.08;10.00;;;;;;;10.83;54.07;99644.88;5113279;28;20051;-68
2021/04/05 11:55:04;;;;;;;20.70;9.05;;;;;;;11.03;54.13;99641.78;5110032;28;20458;-69
2021/04/05 11:58:06;;;;;;;20.25;8.95;;;;;;;11.21;53.46;99639.00;5110734;28;20519;-68
2021/04/05 12:00:53;;;;;;;21.67;9.32;;;;;;;11.21;53.37;99657.69;5115245;28;20105;-69
2021/04/05 12:03:46;;;;;;;17.90;8.18;;;;;;;11.13;53.32;99642.50;5109800;28;20132;-69
2021/04/05 12:06:36;;;;;;;21.35;8.48;;;;;;;11.14;52.85;99653.97;5111229;28;20109;-70
2021/04/05 12:09:29;;;;;;;15.70;7.70;;;;;;;11.08;53.03;99655.47;5109971;28;20514;-69
2021/04/05 12:12:21;;;;;;;11.38;6.65;;;;;;;11.02;53.14;99666.78;5109476;28;20522;-69
2021/04/05 12:15:09;;;;;;;21.85;8.50;;;;;;;11.00;53.39;99655.47;5100264;28;20047;-69
2021/04/05 12:17:54;;;;;;;15.52;8.20;;;;;;;11.04;54.23;99642.63;5082088;28;20093;-70
2021/04/05 12:20:39;;;;;;;14.45;8.93;;;;;;;11.03;53.49;99647.13;5096365;28;20630;-70
2021/04/05 12:23:23;;;;;;;18.90;10.00;;;;;;;10.93;54.34;99646.41;5081231;28;20051;-69
2021/04/05 12:26:09;;;;;;;17.63;8.80;;;;;;;10.87;54.54;99635.56;5095597;28;20558;-69
2021/04/05 12:28:55;;;;;;;15.57;7.88;;;;;;;10.83;55.02;99637.72;5096241;28;20416;-69
2021/04/05 12:31:40;;;;;;;19.50;8.82;;;;;;;10.79;55.19;99641.72;5095681;28;20131;-69
2021/04/05 12:34:33;;;;;;;17.05;8.75;;;;;;;10.71;55.68;99635.50;5096805;28;20046;-69
2021/04/05 12:37:17;;;;;;;14.77;8.50;;;;;;;10.67;55.87;99645.63;5095528;28;20200;-70
2021/04/05 12:40:04;;;;;;;17.15;8.30;;;;;;;10.63;55.87;99640.81;5094929;28;20130;-70
2021/04/05 12:42:48;;;;;;;15.10;7.05;;;;;;;10.56;56.29;99658.44;5096938;28;20135;-70
2021/04/05 12:45:34;;;;;;;19.88;9.45;;;;;;;10.42;56.90;99635.88;5095224;28;20078;-69
2021/04/05 12:48:22;;;;;;;17.48;9.13;;;;;;;10.43;57.37;99642.03;5080437;28;20109;-70
2021/04/05 12:51:07;;;;;;;16.85;8.30;;;;;;;10.35;57.57;99637.47;5096517;28;20177;-69
2021/04/05 12:53:58;;;;;;;19.77;9.35;;;;;;;10.34;57.71;99641.13;5081047;28;20039;-69
2021/04/05 12:56:43;;;;;;;18.30;9.55;;;;;;;10.28;58.71;99649.78;5095859;28;20046;-69
2021/04/05 12:59:28;;;;;;;18.20;9.15;;;;;;;10.30;58.96;99647.78;5095639;28;20055;-70
2021/04/05 13:02:15;;;;;;;16.80;8.90;;;;;;;10.21;61.24;99655.06;5094531;28;20188;-69
2021/04/05 13:05:05;;;;;;;19.13;9.77;;;;;;;10.09;63.23;99658.97;5095121;28;20099;-70
2021/04/05 13:08:03;;;;;;;22.80;10.45;;;;;;;10.07;62.67;99660.91;5093907;28;20079;-69
2021/04/05 13:10:54;;;;;;;18.38;9.55;;;;;;;10.06;63.08;99659.25;5079749;28;20047;-69
2021/04/05 13:13:46;;;;;;;17.85;9.10;;;;;;;10.02;64.34;99658.75;5095196;28;20070;-69
2021/04/05 13:16:34;;;;;;;19.15;10.07;;;;;;;9.80;68.29;99669.03;5093707;28;20047;-70
2021/04/05 13:19:18;;;;;;;20.23;9.10;;;;;;;9.64;67.12;99679.50;5093816;28;20108;-69
2021/04/05 13:22:02;;;;;;;;;;;;;;;9.50;71.40;99677.38;5094382;28;20082;-70
2021/04/05 13:24:53;;;;;;;18.90;11.45;;;;;;;9.34;73.41;99682.53;5093742;28;19923;-69
2021/04/05 13:27:39;;;;;;;18.60;10.48;;;;;;;9.20;74.34;99673.28;5092474;28;20173;-70
2021/04/05 13:30:30;;;;;;;15.77;9.50;;;;;;;9.00;74.33;99665.53;5078773;28;20051;-69
2021/04/05 13:33:15;;;;;;;17.15;10.82;;;;;;;8.89;78.12;99674.56;5093150;28;20089;-69
2021/04/05 13:36:08;;;;;;;17.60;10.70;;;;;;;8.80;79.79;99667.47;5093441;28;20043;-69
2021/04/05 13:39:04;;;;;;;18.33;10.13;;;;;;;8.77;81.35;99672.25;5092898;28;20147;-69
2021/04/05 13:41:48;;;;;;;19.85;12.00;;;;;;;8.62;82.84;99685.19;5078862;28;20118;-70
2021/04/05 13:44:33;;;;;;;19.52;11.55;;;;;;;8.54;82.63;99692.22;5093928;28;20078;-69
2021/04/05 13:47:26;;;;;;;18.88;11.35;;;;;;;8.44;86.13;99708.16;5078757;28;20047;-69
2021/04/05 13:50:11;;;;;;;19.27;11.73;;;;;;;8.26;86.98;99715.19;5092923;28;20047;-69
2021/04/05 13:52:57;;;;;;;20.38;12.20;;;;;;;8.10;89.63;99722.03;5093022;28;20405;-68
2021/04/05 13:55:47;;;;;;;23.48;13.18;;;;;;;7.98;93.61;99715.22;5092796;28;20050;-69
2021/04/05 13:58:39;;;;;;;24.08;13.90;;;;;;;7.84;95.43;99724.44;5078119;28;20039;-69
2021/04/05 14:01:24;;;;;;;28.33;13.35;;;;;;;7.78;98.62;99713.53;5092539;28;20469;-69
2021/04/05 14:04:10;;;;;;;22.38;13.05;;;;;;;7.74;98.83;99728.06;5092161;28;20043;-68
2021/04/05 14:06:55;;;;;;;24.92;13.85;;;;;;;7.67;100.00;99721.63;5092604;28;20120;-69
2021/04/05 14:09:41;;;;;;;24.35;13.95;;;;;;;7.58;100.00;99727.78;5092597;28;20112;-70
2021/04/05 14:12:27;;;;;;;21.20;13.15;;;;;;;7.55;100.00;99733.38;5092502;28;20082;-69
2021/04/05 14:15:12;;;;;;;21.00;13.02;;;;;;;7.51;100.00;99731.13;5092246;28;20047;-69